sensor_id;sensor_type;location;lat;lon;timestamp;P1;durP1;ratioP1;P2;durP2;ratioP2
11771;SDS011;12556;55.748;13.194;2023-05-07T00:00:53;8.37;;;3.17;;
11771;SDS011;12556;55.748;13.194;2023-05-07T00:03:21;4.57;;;2.90;;
11771;SDS011;12556;55.748;13.194;2023-05-07T00:05:49;3.87;;;2.73;;
11771;SDS011;12556;55.748;13.194;2023-05-07T00:08:18;6.40;;;3.30;;
11771;SDS011;12556;55.748;13.194;2023-05-07T00:10:45;3.97;;;3.03;;
11771;SDS011;12556;55.748;13.194;2023-05-07T00:13:12;3.57;;;2.70;;
11771;SDS011;12556;55.748;13.194;2023-05-07T00:15:39;4.90;;;3.33;;
11771;SDS011;12556;55.748;13.194;2023-05-07T00:18:06;5.40;;;3.37;;
11771;SDS011;12556;55.748;13.194;2023-05-07T00:20:33;4.70;;;3.13;;
11771;SDS011;12556;55.748;13.194;2023-05-07T00:23:02;5.00;;;2.80;;
11771;SDS011;12556;55.748;13.194;2023-05-07T00:25:29;7.53;;;2.80;;
11771;SDS011;12556;55.748;13.194;2023-05-07T00:27:56;6.33;;;3.10;;
11771;SDS011;12556;55.748;13.194;2023-05-07T00:30:28;3.47;;;2.83;;
11771;SDS011;12556;55.748;13.194;2023-05-07T00:32:55;4.10;;;2.90;;
11771;SDS011;12556;55.748;13.194;2023-05-07T00:35:22;4.57;;;2.87;;
11771;SDS011;12556;55.748;13.194;2023-05-07T00:37:49;3.47;;;3.17;;
11771;SDS011;12556;55.748;13.194;2023-05-07T00:40:18;7.47;;;3.20;;
11771;SDS011;12556;55.748;13.194;2023-05-07T00:42:45;5.63;;;3.27;;
11771;SDS011;12556;55.748;13.194;2023-05-07T00:45:14;7.07;;;2.87;;
11771;SDS011;12556;55.748;13.194;2023-05-07T00:47:41;4.97;;;3.30;;
11771;SDS011;12556;55.748;13.194;2023-05-07T00:50:08;4.47;;;3.00;;
11771;SDS011;12556;55.748;13.194;2023-05-07T00:52:37;4.00;;;2.67;;
11771;SDS011;12556;55.748;13.194;2023-05-07T00:55:05;3.47;;;2.70;;
11771;SDS011;12556;55.748;13.194;2023-05-07T00:57:34;3.47;;;2.90;;
11771;SDS011;12556;55.748;13.194;2023-05-07T01:00:03;6.00;;;2.90;;
11771;SDS011;12556;55.748;13.194;2023-05-07T01:02:31;2.97;;;2.57;;
11771;SDS011;12556;55.748;13.194;2023-05-07T01:04:58;4.43;;;2.87;;
11771;SDS011;12556;55.748;13.194;2023-05-07T01:07:27;3.30;;;2.77;;
11771;SDS011;12556;55.748;13.194;2023-05-07T01:09:54;4.07;;;2.87;;
11771;SDS011;12556;55.748;13.194;2023-05-07T01:12:21;4.33;;;2.93;;
11771;SDS011;12556;55.748;13.194;2023-05-07T01:14:50;4.87;;;2.60;;
11771;SDS011;12556;55.748;13.194;2023-05-07T01:17:18;4.60;;;2.87;;
11771;SDS011;12556;55.748;13.194;2023-05-07T01:19:45;4.30;;;2.77;;
11771;SDS011;12556;55.748;13.194;2023-05-07T01:22:13;3.20;;;2.70;;
11771;SDS011;12556;55.748;13.194;2023-05-07T01:24:44;5.47;;;3.03;;
11771;SDS011;12556;55.748;13.194;2023-05-07T01:27:11;3.40;;;2.93;;
11771;SDS011;12556;55.748;13.194;2023-05-07T01:29:38;3.07;;;2.77;;
11771;SDS011;12556;55.748;13.194;2023-05-07T01:32:05;6.53;;;3.17;;
11771;SDS011;12556;55.748;13.194;2023-05-07T01:34:33;7.47;;;3.33;;
11771;SDS011;12556;55.748;13.194;2023-05-07T01:37:02;6.90;;;3.27;;
11771;SDS011;12556;55.748;13.194;2023-05-07T01:39:30;3.23;;;2.93;;
11771;SDS011;12556;55.748;13.194;2023-05-07T01:41:59;4.53;;;3.20;;
11771;SDS011;12556;55.748;13.194;2023-05-07T01:44:26;4.10;;;2.87;;
11771;SDS011;12556;55.748;13.194;2023-05-07T01:46:54;5.43;;;3.00;;
11771;SDS011;12556;55.748;13.194;2023-05-07T01:49:21;5.73;;;3.37;;
11771;SDS011;12556;55.748;13.194;2023-05-07T01:51:49;3.67;;;2.97;;
11771;SDS011;12556;55.748;13.194;2023-05-07T01:54:16;3.57;;;2.97;;
11771;SDS011;12556;55.748;13.194;2023-05-07T01:56:43;5.13;;;3.20;;
11771;SDS011;12556;55.748;13.194;2023-05-07T01:59:14;5.70;;;3.40;;
11771;SDS011;12556;55.748;13.194;2023-05-07T02:01:41;9.03;;;3.07;;
11771;SDS011;12556;55.748;13.194;2023-05-07T02:04:08;4.67;;;2.97;;
11771;SDS011;12556;55.748;13.194;2023-05-07T02:06:35;6.23;;;3.10;;
11771;SDS011;12556;55.748;13.194;2023-05-07T02:09:02;8.77;;;2.80;;
11771;SDS011;12556;55.748;13.194;2023-05-07T02:11:29;4.77;;;3.10;;
11771;SDS011;12556;55.748;13.194;2023-05-07T02:13:56;5.20;;;2.87;;
11771;SDS011;12556;55.748;13.194;2023-05-07T02:16:25;4.40;;;3.07;;
11771;SDS011;12556;55.748;13.194;2023-05-07T02:18:51;5.53;;;2.80;;
11771;SDS011;12556;55.748;13.194;2023-05-07T02:21:18;4.57;;;2.80;;
11771;SDS011;12556;55.748;13.194;2023-05-07T02:23:45;3.80;;;2.83;;
11771;SDS011;12556;55.748;13.194;2023-05-07T02:26:12;3.53;;;2.93;;
11771;SDS011;12556;55.748;13.194;2023-05-07T02:28:39;5.17;;;3.10;;
11771;SDS011;12556;55.748;13.194;2023-05-07T02:31:06;4.80;;;2.83;;
11771;SDS011;12556;55.748;13.194;2023-05-07T02:33:35;4.33;;;3.00;;
11771;SDS011;12556;55.748;13.194;2023-05-07T02:36:06;6.43;;;3.17;;
11771;SDS011;12556;55.748;13.194;2023-05-07T02:38:33;5.60;;;2.83;;
11771;SDS011;12556;55.748;13.194;2023-05-07T02:41:00;5.40;;;3.27;;
11771;SDS011;12556;55.748;13.194;2023-05-07T02:43:28;9.00;;;2.87;;
11771;SDS011;12556;55.748;13.194;2023-05-07T02:46:01;4.80;;;2.97;;
11771;SDS011;12556;55.748;13.194;2023-05-07T02:48:29;5.13;;;2.70;;
11771;SDS011;12556;55.748;13.194;2023-05-07T02:50:57;4.17;;;3.03;;
11771;SDS011;12556;55.748;13.194;2023-05-07T02:53:24;5.33;;;2.97;;
11771;SDS011;12556;55.748;13.194;2023-05-07T02:55:52;6.20;;;2.70;;
11771;SDS011;12556;55.748;13.194;2023-05-07T02:58:19;5.33;;;2.43;;
11771;SDS011;12556;55.748;13.194;2023-05-07T03:00:46;6.07;;;3.57;;
11771;SDS011;12556;55.748;13.194;2023-05-07T03:03:13;6.93;;;2.63;;
11771;SDS011;12556;55.748;13.194;2023-05-07T03:05:40;2.63;;;2.43;;
11771;SDS011;12556;55.748;13.194;2023-05-07T03:08:10;6.70;;;3.00;;
11771;SDS011;12556;55.748;13.194;2023-05-07T03:10:37;3.93;;;3.03;;
11771;SDS011;12556;55.748;13.194;2023-05-07T03:13:04;3.47;;;2.50;;
11771;SDS011;12556;55.748;13.194;2023-05-07T03:15:31;5.40;;;2.67;;
11771;SDS011;12556;55.748;13.194;2023-05-07T03:17:58;3.83;;;2.57;;
11771;SDS011;12556;55.748;13.194;2023-05-07T03:20:27;4.00;;;3.10;;
11771;SDS011;12556;55.748;13.194;2023-05-07T03:22:54;3.53;;;3.13;;
11771;SDS011;12556;55.748;13.194;2023-05-07T03:25:22;9.17;;;2.67;;
11771;SDS011;12556;55.748;13.194;2023-05-07T03:27:49;3.43;;;2.63;;
11771;SDS011;12556;55.748;13.194;2023-05-07T03:30:16;2.90;;;2.33;;
11771;SDS011;12556;55.748;13.194;2023-05-07T03:32:43;3.00;;;2.70;;
11771;SDS011;12556;55.748;13.194;2023-05-07T03:35:10;3.23;;;2.90;;
11771;SDS011;12556;55.748;13.194;2023-05-07T03:37:37;6.10;;;3.10;;
11771;SDS011;12556;55.748;13.194;2023-05-07T03:40:05;6.13;;;2.73;;
11771;SDS011;12556;55.748;13.194;2023-05-07T03:42:34;8.47;;;2.83;;
11771;SDS011;12556;55.748;13.194;2023-05-07T03:45:01;3.03;;;2.70;;
11771;SDS011;12556;55.748;13.194;2023-05-07T03:47:28;4.03;;;2.70;;
11771;SDS011;12556;55.748;13.194;2023-05-07T03:49:55;4.40;;;2.60;;
11771;SDS011;12556;55.748;13.194;2023-05-07T03:52:22;7.00;;;2.87;;
11771;SDS011;12556;55.748;13.194;2023-05-07T03:54:51;4.03;;;2.73;;
11771;SDS011;12556;55.748;13.194;2023-05-07T03:57:18;3.83;;;2.70;;
11771;SDS011;12556;55.748;13.194;2023-05-07T03:59:46;5.40;;;2.80;;
11771;SDS011;12556;55.748;13.194;2023-05-07T04:02:13;5.23;;;3.00;;
11771;SDS011;12556;55.748;13.194;2023-05-07T04:04:40;6.30;;;3.13;;
11771;SDS011;12556;55.748;13.194;2023-05-07T04:07:07;5.13;;;2.73;;
11771;SDS011;12556;55.748;13.194;2023-05-07T04:09:37;3.50;;;2.57;;
11771;SDS011;12556;55.748;13.194;2023-05-07T04:12:04;4.00;;;2.50;;
11771;SDS011;12556;55.748;13.194;2023-05-07T04:14:31;5.03;;;2.93;;
11771;SDS011;12556;55.748;13.194;2023-05-07T04:16:59;4.47;;;3.23;;
11771;SDS011;12556;55.748;13.194;2023-05-07T04:19:27;5.87;;;3.27;;
11771;SDS011;12556;55.748;13.194;2023-05-07T04:21:54;9.60;;;3.07;;
11771;SDS011;12556;55.748;13.194;2023-05-07T04:24:21;4.47;;;2.60;;
11771;SDS011;12556;55.748;13.194;2023-05-07T04:26:48;3.73;;;2.50;;
11771;SDS011;12556;55.748;13.194;2023-05-07T04:29:16;5.97;;;2.77;;
11771;SDS011;12556;55.748;13.194;2023-05-07T04:31:43;7.93;;;4.33;;
11771;SDS011;12556;55.748;13.194;2023-05-07T04:34:11;4.73;;;2.47;;
11771;SDS011;12556;55.748;13.194;2023-05-07T04:36:39;5.70;;;2.57;;
11771;SDS011;12556;55.748;13.194;2023-05-07T04:39:06;4.50;;;2.57;;
11771;SDS011;12556;55.748;13.194;2023-05-07T04:41:35;7.40;;;2.77;;
11771;SDS011;12556;55.748;13.194;2023-05-07T04:44:02;3.00;;;2.70;;
11771;SDS011;12556;55.748;13.194;2023-05-07T04:46:31;4.53;;;2.63;;
11771;SDS011;12556;55.748;13.194;2023-05-07T04:48:58;3.30;;;2.60;;
11771;SDS011;12556;55.748;13.194;2023-05-07T04:51:26;3.37;;;2.67;;
11771;SDS011;12556;55.748;13.194;2023-05-07T04:53:53;4.77;;;2.63;;
11771;SDS011;12556;55.748;13.194;2023-05-07T04:56:20;3.70;;;2.17;;
11771;SDS011;12556;55.748;13.194;2023-05-07T04:58:47;2.97;;;2.23;;
11771;SDS011;12556;55.748;13.194;2023-05-07T05:01:14;3.97;;;2.63;;
11771;SDS011;12556;55.748;13.194;2023-05-07T05:03:41;6.47;;;3.03;;
11771;SDS011;12556;55.748;13.194;2023-05-07T05:06:08;6.30;;;2.50;;
11771;SDS011;12556;55.748;13.194;2023-05-07T05:08:37;5.80;;;2.70;;
11771;SDS011;12556;55.748;13.194;2023-05-07T05:11:04;4.47;;;2.93;;
11771;SDS011;12556;55.748;13.194;2023-05-07T05:13:31;5.00;;;2.70;;
11771;SDS011;12556;55.748;13.194;2023-05-07T05:15:57;6.40;;;2.87;;
11771;SDS011;12556;55.748;13.194;2023-05-07T05:18:25;3.40;;;2.47;;
11771;SDS011;12556;55.748;13.194;2023-05-07T05:20:51;5.07;;;2.70;;
11771;SDS011;12556;55.748;13.194;2023-05-07T05:23:18;6.40;;;3.03;;
11771;SDS011;12556;55.748;13.194;2023-05-07T05:25:47;3.23;;;2.57;;
11771;SDS011;12556;55.748;13.194;2023-05-07T05:28:14;3.00;;;2.80;;
11771;SDS011;12556;55.748;13.194;2023-05-07T05:30:41;4.23;;;2.80;;
11771;SDS011;12556;55.748;13.194;2023-05-07T05:33:08;3.87;;;2.50;;
11771;SDS011;12556;55.748;13.194;2023-05-07T05:35:35;3.53;;;2.60;;
11771;SDS011;12556;55.748;13.194;2023-05-07T05:38:02;3.83;;;2.60;;
11771;SDS011;12556;55.748;13.194;2023-05-07T05:40:29;4.87;;;2.37;;
11771;SDS011;12556;55.748;13.194;2023-05-07T05:42:58;4.73;;;2.30;;
11771;SDS011;12556;55.748;13.194;2023-05-07T05:45:25;3.97;;;2.47;;
11771;SDS011;12556;55.748;13.194;2023-05-07T05:47:52;3.67;;;2.37;;
11771;SDS011;12556;55.748;13.194;2023-05-07T05:50:19;7.13;;;2.53;;
11771;SDS011;12556;55.748;13.194;2023-05-07T05:52:46;3.30;;;1.83;;
11771;SDS011;12556;55.748;13.194;2023-05-07T05:55:13;5.63;;;2.50;;
11771;SDS011;12556;55.748;13.194;2023-05-07T05:57:40;5.87;;;2.50;;
11771;SDS011;12556;55.748;13.194;2023-05-07T06:00:09;5.47;;;2.27;;
11771;SDS011;12556;55.748;13.194;2023-05-07T06:02:37;3.03;;;2.20;;
11771;SDS011;12556;55.748;13.194;2023-05-07T06:05:04;4.13;;;2.10;;
11771;SDS011;12556;55.748;13.194;2023-05-07T06:07:32;4.13;;;2.27;;
11771;SDS011;12556;55.748;13.194;2023-05-07T06:09:59;4.30;;;2.47;;
11771;SDS011;12556;55.748;13.194;2023-05-07T06:12:26;7.77;;;1.90;;
11771;SDS011;12556;55.748;13.194;2023-05-07T06:14:53;8.03;;;2.27;;
11771;SDS011;12556;55.748;13.194;2023-05-07T06:17:22;2.20;;;2.00;;
11771;SDS011;12556;55.748;13.194;2023-05-07T06:19:49;3.77;;;2.30;;
11771;SDS011;12556;55.748;13.194;2023-05-07T06:22:15;4.23;;;2.87;;
11771;SDS011;12556;55.748;13.194;2023-05-07T06:24:42;3.20;;;1.97;;
11771;SDS011;12556;55.748;13.194;2023-05-07T06:27:10;4.00;;;2.47;;
11771;SDS011;12556;55.748;13.194;2023-05-07T06:29:37;4.13;;;2.47;;
11771;SDS011;12556;55.748;13.194;2023-05-07T06:32:07;3.70;;;2.20;;
11771;SDS011;12556;55.748;13.194;2023-05-07T06:34:36;7.57;;;2.43;;
11771;SDS011;12556;55.748;13.194;2023-05-07T06:37:03;4.17;;;2.40;;
11771;SDS011;12556;55.748;13.194;2023-05-07T06:39:30;3.97;;;2.43;;
11771;SDS011;12556;55.748;13.194;2023-05-07T06:41:58;5.20;;;2.43;;
11771;SDS011;12556;55.748;13.194;2023-05-07T06:44:26;2.50;;;2.20;;
11771;SDS011;12556;55.748;13.194;2023-05-07T06:46:52;4.17;;;2.40;;
11771;SDS011;12556;55.748;13.194;2023-05-07T06:49:19;5.57;;;2.33;;
11771;SDS011;12556;55.748;13.194;2023-05-07T06:51:48;4.03;;;2.60;;
11771;SDS011;12556;55.748;13.194;2023-05-07T06:54:16;4.77;;;2.70;;
11771;SDS011;12556;55.748;13.194;2023-05-07T06:56:43;7.07;;;2.60;;
11771;SDS011;12556;55.748;13.194;2023-05-07T06:59:10;5.73;;;2.40;;
11771;SDS011;12556;55.748;13.194;2023-05-07T07:01:37;3.07;;;2.23;;
11771;SDS011;12556;55.748;13.194;2023-05-07T07:04:04;4.97;;;2.33;;
11771;SDS011;12556;55.748;13.194;2023-05-07T07:06:31;5.30;;;2.23;;
11771;SDS011;12556;55.748;13.194;2023-05-07T07:08:59;7.70;;;2.87;;
11771;SDS011;12556;55.748;13.194;2023-05-07T07:11:26;5.87;;;2.60;;
11771;SDS011;12556;55.748;13.194;2023-05-07T07:13:53;3.37;;;2.07;;
11771;SDS011;12556;55.748;13.194;2023-05-07T07:16:20;5.00;;;2.27;;
11771;SDS011;12556;55.748;13.194;2023-05-07T07:18:48;5.67;;;2.37;;
11771;SDS011;12556;55.748;13.194;2023-05-07T07:21:15;5.13;;;1.90;;
11771;SDS011;12556;55.748;13.194;2023-05-07T07:23:41;3.23;;;2.13;;
11771;SDS011;12556;55.748;13.194;2023-05-07T07:26:10;5.07;;;2.37;;
11771;SDS011;12556;55.748;13.194;2023-05-07T07:28:41;8.03;;;2.20;;
11771;SDS011;12556;55.748;13.194;2023-05-07T07:31:09;3.27;;;2.50;;
11771;SDS011;12556;55.748;13.194;2023-05-07T07:33:36;4.33;;;2.03;;
11771;SDS011;12556;55.748;13.194;2023-05-07T07:36:04;3.50;;;2.10;;
11771;SDS011;12556;55.748;13.194;2023-05-07T07:38:32;3.93;;;2.30;;
11771;SDS011;12556;55.748;13.194;2023-05-07T07:40:59;3.80;;;2.90;;
11771;SDS011;12556;55.748;13.194;2023-05-07T07:43:28;5.70;;;2.33;;
11771;SDS011;12556;55.748;13.194;2023-05-07T07:45:55;3.20;;;2.53;;
11771;SDS011;12556;55.748;13.194;2023-05-07T07:48:22;4.60;;;2.60;;
11771;SDS011;12556;55.748;13.194;2023-05-07T07:50:49;6.87;;;2.33;;
11771;SDS011;12556;55.748;13.194;2023-05-07T07:53:16;3.87;;;2.50;;
11771;SDS011;12556;55.748;13.194;2023-05-07T07:55:43;3.57;;;1.90;;
11771;SDS011;12556;55.748;13.194;2023-05-07T07:58:10;3.03;;;2.30;;
11771;SDS011;12556;55.748;13.194;2023-05-07T08:00:38;5.07;;;2.53;;
11771;SDS011;12556;55.748;13.194;2023-05-07T08:03:05;7.80;;;3.03;;
11771;SDS011;12556;55.748;13.194;2023-05-07T08:05:35;4.80;;;2.80;;
11771;SDS011;12556;55.748;13.194;2023-05-07T08:08:03;5.27;;;2.43;;
11771;SDS011;12556;55.748;13.194;2023-05-07T08:10:30;6.67;;;2.40;;
11771;SDS011;12556;55.748;13.194;2023-05-07T08:12:59;5.60;;;2.20;;
11771;SDS011;12556;55.748;13.194;2023-05-07T08:15:27;4.60;;;2.37;;
11771;SDS011;12556;55.748;13.194;2023-05-07T08:17:55;3.50;;;2.07;;
11771;SDS011;12556;55.748;13.194;2023-05-07T08:20:25;5.33;;;2.10;;
11771;SDS011;12556;55.748;13.194;2023-05-07T08:22:52;6.93;;;2.30;;
11771;SDS011;12556;55.748;13.194;2023-05-07T08:25:19;5.50;;;2.40;;
11771;SDS011;12556;55.748;13.194;2023-05-07T08:27:46;3.93;;;2.10;;
11771;SDS011;12556;55.748;13.194;2023-05-07T08:30:13;6.17;;;2.60;;
11771;SDS011;12556;55.748;13.194;2023-05-07T08:32:40;4.90;;;2.30;;
11771;SDS011;12556;55.748;13.194;2023-05-07T08:35:09;4.80;;;2.70;;
11771;SDS011;12556;55.748;13.194;2023-05-07T08:37:36;5.57;;;2.53;;
11771;SDS011;12556;55.748;13.194;2023-05-07T08:40:04;4.93;;;2.70;;
11771;SDS011;12556;55.748;13.194;2023-05-07T08:42:33;3.70;;;2.57;;
11771;SDS011;12556;55.748;13.194;2023-05-07T08:45:03;4.17;;;2.70;;
11771;SDS011;12556;55.748;13.194;2023-05-07T08:47:39;3.60;;;2.40;;
11771;SDS011;12556;55.748;13.194;2023-05-07T08:50:11;3.38;;;2.15;;
11771;SDS011;12556;55.748;13.194;2023-05-07T08:52:38;3.03;;;2.17;;
11771;SDS011;12556;55.748;13.194;2023-05-07T08:55:06;2.78;;;2.33;;
11771;SDS011;12556;55.748;13.194;2023-05-07T08:57:34;6.33;;;2.50;;
11771;SDS011;12556;55.748;13.194;2023-05-07T09:00:01;4.65;;;2.45;;
11771;SDS011;12556;55.748;13.194;2023-05-07T09:02:29;6.20;;;2.58;;
11771;SDS011;12556;55.748;13.194;2023-05-07T09:04:56;4.30;;;2.90;;
11771;SDS011;12556;55.748;13.194;2023-05-07T09:07:24;3.08;;;2.25;;
11771;SDS011;12556;55.748;13.194;2023-05-07T09:09:51;5.28;;;2.45;;
11771;SDS011;12556;55.748;13.194;2023-05-07T09:12:20;4.47;;;2.50;;
11771;SDS011;12556;55.748;13.194;2023-05-07T09:14:47;3.35;;;2.58;;
11771;SDS011;12556;55.748;13.194;2023-05-07T09:17:15;6.45;;;2.70;;
11771;SDS011;12556;55.748;13.194;2023-05-07T09:19:42;4.93;;;2.72;;
11771;SDS011;12556;55.748;13.194;2023-05-07T09:22:10;5.20;;;2.50;;
11771;SDS011;12556;55.748;13.194;2023-05-07T09:24:39;3.53;;;2.53;;
11771;SDS011;12556;55.748;13.194;2023-05-07T09:27:06;6.38;;;2.35;;
11771;SDS011;12556;55.748;13.194;2023-05-07T09:29:35;4.05;;;2.35;;
11771;SDS011;12556;55.748;13.194;2023-05-07T09:32:03;2.47;;;2.25;;
11771;SDS011;12556;55.748;13.194;2023-05-07T09:34:31;3.15;;;2.40;;
11771;SDS011;12556;55.748;13.194;2023-05-07T09:36:58;4.88;;;2.30;;
11771;SDS011;12556;55.748;13.194;2023-05-07T09:39:39;3.70;;;2.33;;
11771;SDS011;12556;55.748;13.194;2023-05-07T09:42:06;7.68;;;2.35;;
11771;SDS011;12556;55.748;13.194;2023-05-07T09:44:46;4.68;;;2.45;;
11771;SDS011;12556;55.748;13.194;2023-05-07T09:47:19;6.65;;;2.55;;
11771;SDS011;12556;55.748;13.194;2023-05-07T09:49:49;2.78;;;2.47;;
11771;SDS011;12556;55.748;13.194;2023-05-07T09:52:18;3.85;;;2.28;;
11771;SDS011;12556;55.748;13.194;2023-05-07T09:54:48;3.08;;;2.42;;
11771;SDS011;12556;55.748;13.194;2023-05-07T09:57:16;3.75;;;2.67;;
11771;SDS011;12556;55.748;13.194;2023-05-07T09:59:45;4.07;;;2.42;;
11771;SDS011;12556;55.748;13.194;2023-05-07T10:02:13;4.03;;;2.40;;
11771;SDS011;12556;55.748;13.194;2023-05-07T10:04:41;6.18;;;2.50;;
11771;SDS011;12556;55.748;13.194;2023-05-07T10:07:09;4.25;;;2.50;;
11771;SDS011;12556;55.748;13.194;2023-05-07T10:09:36;3.92;;;2.42;;
11771;SDS011;12556;55.748;13.194;2023-05-07T10:12:09;3.15;;;2.42;;
11771;SDS011;12556;55.748;13.194;2023-05-07T10:14:35;3.92;;;2.17;;
11771;SDS011;12556;55.748;13.194;2023-05-07T10:17:03;4.50;;;2.50;;
11771;SDS011;12556;55.748;13.194;2023-05-07T10:19:30;3.90;;;2.30;;
11771;SDS011;12556;55.748;13.194;2023-05-07T10:21:59;3.22;;;2.38;;
11771;SDS011;12556;55.748;13.194;2023-05-07T10:24:31;7.70;;;2.70;;
11771;SDS011;12556;55.748;13.194;2023-05-07T10:27:00;3.47;;;2.53;;
11771;SDS011;12556;55.748;13.194;2023-05-07T10:29:35;7.15;;;2.40;;
11771;SDS011;12556;55.748;13.194;2023-05-07T10:32:16;6.47;;;2.25;;
11771;SDS011;12556;55.748;13.194;2023-05-07T10:34:53;5.85;;;2.75;;
11771;SDS011;12556;55.748;13.194;2023-05-07T10:37:22;3.03;;;2.20;;
11771;SDS011;12556;55.748;13.194;2023-05-07T10:39:50;3.38;;;2.30;;
11771;SDS011;12556;55.748;13.194;2023-05-07T10:42:18;3.55;;;2.42;;
11771;SDS011;12556;55.748;13.194;2023-05-07T10:44:46;2.92;;;2.42;;
11771;SDS011;12556;55.748;13.194;2023-05-07T10:47:15;3.00;;;2.42;;
11771;SDS011;12556;55.748;13.194;2023-05-07T10:55:49;4.55;;;2.47;;
11771;SDS011;12556;55.748;13.194;2023-05-07T10:58:22;3.70;;;2.50;;
11771;SDS011;12556;55.748;13.194;2023-05-07T11:00:56;3.30;;;2.30;;
11771;SDS011;12556;55.748;13.194;2023-05-07T11:03:24;6.85;;;2.53;;
11771;SDS011;12556;55.748;13.194;2023-05-07T11:08:54;3.53;;;2.15;;
11771;SDS011;12556;55.748;13.194;2023-05-07T11:11:44;3.03;;;2.13;;
11771;SDS011;12556;55.748;13.194;2023-05-07T11:14:13;3.20;;;2.10;;
11771;SDS011;12556;55.748;13.194;2023-05-07T11:16:41;2.35;;;2.13;;
11771;SDS011;12556;55.748;13.194;2023-05-07T11:19:10;2.50;;;2.30;;
11771;SDS011;12556;55.748;13.194;2023-05-07T11:21:37;4.75;;;2.33;;
11771;SDS011;12556;55.748;13.194;2023-05-07T11:24:05;3.00;;;2.30;;
11771;SDS011;12556;55.748;13.194;2023-05-07T11:26:43;4.65;;;2.80;;
11771;SDS011;12556;55.748;13.194;2023-05-07T11:29:14;2.78;;;2.53;;
11771;SDS011;12556;55.748;13.194;2023-05-07T11:31:43;2.88;;;2.13;;
11771;SDS011;12556;55.748;13.194;2023-05-07T11:34:14;3.33;;;2.38;;
11771;SDS011;12556;55.748;13.194;2023-05-07T11:36:46;3.58;;;2.40;;
11771;SDS011;12556;55.748;13.194;2023-05-07T11:39:24;2.63;;;1.98;;
11771;SDS011;12556;55.748;13.194;2023-05-07T11:41:56;5.40;;;2.47;;
11771;SDS011;12556;55.748;13.194;2023-05-07T11:44:23;3.22;;;2.10;;
11771;SDS011;12556;55.748;13.194;2023-05-07T11:46:52;3.72;;;2.33;;
11771;SDS011;12556;55.748;13.194;2023-05-07T11:49:19;3.97;;;2.60;;
11771;SDS011;12556;55.748;13.194;2023-05-07T11:51:46;4.75;;;2.53;;
11771;SDS011;12556;55.748;13.194;2023-05-07T11:54:15;2.65;;;2.40;;
11771;SDS011;12556;55.748;13.194;2023-05-07T11:56:43;5.40;;;2.08;;
11771;SDS011;12556;55.748;13.194;2023-05-07T11:59:12;3.53;;;2.53;;
11771;SDS011;12556;55.748;13.194;2023-05-07T12:01:45;4.10;;;2.25;;
11771;SDS011;12556;55.748;13.194;2023-05-07T12:04:13;2.88;;;2.63;;
11771;SDS011;12556;55.748;13.194;2023-05-07T12:06:45;4.13;;;2.65;;
11771;SDS011;12556;55.748;13.194;2023-05-07T12:09:12;2.80;;;2.50;;
11771;SDS011;12556;55.748;13.194;2023-05-07T12:11:39;2.90;;;2.38;;
11771;SDS011;12556;55.748;13.194;2023-05-07T12:14:11;3.88;;;2.55;;
11771;SDS011;12556;55.748;13.194;2023-05-07T12:16:38;3.40;;;3.03;;
11771;SDS011;12556;55.748;13.194;2023-05-07T12:19:06;4.97;;;3.22;;
11771;SDS011;12556;55.748;13.194;2023-05-07T12:21:38;3.90;;;2.95;;
11771;SDS011;12556;55.748;13.194;2023-05-07T12:24:06;3.20;;;2.85;;
11771;SDS011;12556;55.748;13.194;2023-05-07T12:26:37;5.22;;;2.83;;
11771;SDS011;12556;55.748;13.194;2023-05-07T12:29:05;5.13;;;2.92;;
11771;SDS011;12556;55.748;13.194;2023-05-07T12:31:32;3.20;;;2.63;;
11771;SDS011;12556;55.748;13.194;2023-05-07T12:33:59;3.22;;;2.90;;
11771;SDS011;12556;55.748;13.194;2023-05-07T12:36:26;2.92;;;2.70;;
11771;SDS011;12556;55.748;13.194;2023-05-07T12:39:05;4.07;;;2.70;;
11771;SDS011;12556;55.748;13.194;2023-05-07T12:41:35;5.55;;;3.15;;
11771;SDS011;12556;55.748;13.194;2023-05-07T12:44:18;2.95;;;2.70;;
11771;SDS011;12556;55.748;13.194;2023-05-07T12:46:46;4.13;;;2.60;;
11771;SDS011;12556;55.748;13.194;2023-05-07T12:49:13;4.25;;;2.75;;
11771;SDS011;12556;55.748;13.194;2023-05-07T12:51:40;2.92;;;2.63;;
11771;SDS011;12556;55.748;13.194;2023-05-07T12:54:08;2.97;;;2.78;;
11771;SDS011;12556;55.748;13.194;2023-05-07T12:56:35;4.72;;;3.05;;
11771;SDS011;12556;55.748;13.194;2023-05-07T12:59:03;3.78;;;3.33;;
11771;SDS011;12556;55.748;13.194;2023-05-07T13:01:30;4.38;;;2.88;;
11771;SDS011;12556;55.748;13.194;2023-05-07T13:04:00;5.32;;;3.13;;
11771;SDS011;12556;55.748;13.194;2023-05-07T13:06:29;3.83;;;2.80;;
11771;SDS011;12556;55.748;13.194;2023-05-07T13:08:56;4.28;;;2.97;;
11771;SDS011;12556;55.748;13.194;2023-05-07T13:11:25;3.00;;;2.60;;
11771;SDS011;12556;55.748;13.194;2023-05-07T13:13:52;3.00;;;2.72;;
11771;SDS011;12556;55.748;13.194;2023-05-07T13:16:19;3.80;;;3.10;;
11771;SDS011;12556;55.748;13.194;2023-05-07T13:18:46;4.53;;;3.22;;
11771;SDS011;12556;55.748;13.194;2023-05-07T13:21:13;4.80;;;3.13;;
11771;SDS011;12556;55.748;13.194;2023-05-07T13:23:40;4.32;;;3.35;;
11771;SDS011;12556;55.748;13.194;2023-05-07T13:26:07;4.20;;;3.25;;
11771;SDS011;12556;55.748;13.194;2023-05-07T13:28:36;4.13;;;3.05;;
11771;SDS011;12556;55.748;13.194;2023-05-07T13:31:03;5.72;;;3.28;;
11771;SDS011;12556;55.748;13.194;2023-05-07T13:33:30;3.78;;;3.45;;
11771;SDS011;12556;55.748;13.194;2023-05-07T13:35:57;4.13;;;3.28;;
11771;SDS011;12556;55.748;13.194;2023-05-07T13:38:25;3.83;;;3.35;;
11771;SDS011;12556;55.748;13.194;2023-05-07T13:40:52;5.65;;;3.70;;
11771;SDS011;12556;55.748;13.194;2023-05-07T13:43:19;5.85;;;3.10;;
11771;SDS011;12556;55.748;13.194;2023-05-07T13:45:48;4.32;;;3.10;;
11771;SDS011;12556;55.748;13.194;2023-05-07T13:48:15;4.82;;;3.17;;
11771;SDS011;12556;55.748;13.194;2023-05-07T13:50:42;4.95;;;2.95;;
11771;SDS011;12556;55.748;13.194;2023-05-07T13:53:08;3.65;;;2.95;;
11771;SDS011;12556;55.748;13.194;2023-05-07T13:55:41;3.55;;;3.10;;
11771;SDS011;12556;55.748;13.194;2023-05-07T13:58:08;4.93;;;3.05;;
11771;SDS011;12556;55.748;13.194;2023-05-07T14:00:35;3.58;;;2.83;;
11771;SDS011;12556;55.748;13.194;2023-05-07T14:03:03;6.25;;;3.35;;
11771;SDS011;12556;55.748;13.194;2023-05-07T14:05:31;4.13;;;3.08;;
11771;SDS011;12556;55.748;13.194;2023-05-07T14:07:58;4.78;;;3.30;;
11771;SDS011;12556;55.748;13.194;2023-05-07T14:10:25;4.05;;;3.10;;
11771;SDS011;12556;55.748;13.194;2023-05-07T14:12:52;2.80;;;2.60;;
11771;SDS011;12556;55.748;13.194;2023-05-07T14:15:20;4.43;;;3.22;;
11771;SDS011;12556;55.748;13.194;2023-05-07T14:17:48;4.47;;;2.67;;
11771;SDS011;12556;55.748;13.194;2023-05-07T14:20:17;4.90;;;3.25;;
11771;SDS011;12556;55.748;13.194;2023-05-07T14:22:44;3.30;;;2.72;;
11771;SDS011;12556;55.748;13.194;2023-05-07T14:25:11;5.22;;;3.50;;
11771;SDS011;12556;55.748;13.194;2023-05-07T14:27:38;6.20;;;3.40;;
11771;SDS011;12556;55.748;13.194;2023-05-07T14:30:06;5.00;;;3.38;;
11771;SDS011;12556;55.748;13.194;2023-05-07T14:32:34;4.07;;;3.13;;
11771;SDS011;12556;55.748;13.194;2023-05-07T14:35:01;7.35;;;3.70;;
11771;SDS011;12556;55.748;13.194;2023-05-07T14:37:29;5.60;;;3.53;;
11771;SDS011;12556;55.748;13.194;2023-05-07T14:39:56;4.50;;;3.35;;
11771;SDS011;12556;55.748;13.194;2023-05-07T14:42:23;3.50;;;3.20;;
11771;SDS011;12556;55.748;13.194;2023-05-07T14:44:50;4.57;;;3.22;;
11771;SDS011;12556;55.748;13.194;2023-05-07T14:47:18;4.13;;;3.47;;